Time;durP1;ratioP1;P1;durP2;ratioP2;P2;SDS_P1;SDS_P2;PMS_P1;PMS_P2;Temp;Humidity;BMP_temperature;BMP_pressure;BME280_temperature;BME280_humidity;BME280_pressure;Samples;Min_cycle;Max_cycle;Signal;HPM_P1;HPM_P2
2021/01/17 00:01:33;;;;;;;;;;;;;;;-6.25;92.02;98130.19;4872571;29;19930;-83
2021/01/17 00:03:58;;;;;;;;;;;;;;;-6.33;92.67;98124.97;4872651;29;19915;-85
2021/01/17 00:06:23;;;;;;;;;;;;;;;-6.19;92.31;98118.78;4880356;29;19919;-85
2021/01/17 00:08:49;;;;;;;;;;;;;;;-6.22;92.16;98119.16;4898110;29;19943;-84
2021/01/17 00:11:31;;;;;;;;;;;;;;;-6.17;91.94;98112.25;4907071;29;19922;-86
2021/01/17 00:13:56;;;;;;;;;;;;;;;-6.26;92.74;98117.88;4887879;29;19919;-85
2021/01/17 00:16:22;;;;;;;;;;;;;;;-6.25;92.37;98104.41;4894115;29;20365;-85
2021/01/17 00:18:47;;;;;;;;;;;;;;;-6.46;92.65;98106.16;4878502;29;20388;-81
2021/01/17 00:21:13;;;;;;;;;;;;;;;-6.54;93.24;98089.28;4898190;29;19915;-85
2021/01/17 00:23:38;;;;;;;;;;;;;;;-6.33;93.09;98101.84;4871550;29;20452;-85
2021/01/17 00:26:04;;;;;;;;;;;;;;;-6.36;93.33;98104.06;4875828;29;19917;-83
2021/01/17 00:28:29;;;;;;;;;;;;;;;-6.16;92.87;98097.13;4866906;29;20377;-83
2021/01/17 00:30:54;;;;;;;;;;;;;;;-6.30;92.04;98100.66;4870906;29;19920;-83
2021/01/17 00:33:20;;;;;;;;;;;;;;;-6.39;92.07;98093.78;4875362;29;19915;-85
2021/01/17 00:35:45;;;;;;;;;;;;;;;-6.51;92.40;98093.41;4868742;29;20342;-84
2021/01/17 00:38:10;;;;;;;;;;;;;;;-6.40;92.37;98095.63;4872813;29;20018;-86
2021/01/17 00:40:35;;;;;;;;;;;;;;;-6.54;92.74;98091.13;4871062;29;19916;-85
2021/01/17 00:43:01;;;;;;;;;;;;;;;-6.59;93.91;98094.34;4890078;29;19970;-86
2021/01/17 00:45:26;;;;;;;;;;;;;;;-6.36;93.17;98086.25;4908543;29;20365;-86
2021/01/17 00:47:52;;;;;;;;;;;;;;;-6.41;92.42;98085.16;4932888;29;19914;-86
2021/01/17 00:50:18;;;;;;;;;;;;;;;-6.47;92.89;98088.56;4945989;29;19915;-84
2021/01/17 00:52:52;;;;;;;;;;;;;;;-6.40;93.22;98100.09;4950506;29;19911;-83
2021/01/17 00:55:17;;;;;;;;;;;;;;;-6.54;92.35;98086.63;4951538;29;19965;-86
2021/01/17 00:57:43;;;;;;;;;;;;;;;-6.68;92.72;98082.16;4941542;29;19914;-86
2021/01/17 01:00:12;;;;;;;;;;;;;;;-6.81;93.29;98075.81;4940932;29;19922;-87
2021/01/17 01:02:38;;;;;;;;;;;;;;;-6.60;93.40;98068.75;4957196;29;19950;-87
2021/01/17 01:05:03;;;;;;;;;;;;;;;-6.75;93.31;98062.63;4960152;29;19946;-87
2021/01/17 01:07:29;;;;;;;;;;;;;;;-6.71;93.52;98065.75;4961277;29;19919;-85
2021/01/17 01:09:54;;;;;;;;;;;;;;;-6.68;93.10;98060.06;4944941;29;19982;-84
2021/01/17 01:12:19;;;;;;;;;;;;;;;-6.31;91.92;98059.09;4957180;29;19913;-85
2021/01/17 01:14:44;;;;;;;;;;;;;;;-6.46;91.99;98063.63;4940370;29;20461;-86
2021/01/17 01:17:10;;;;;;;;;;;;;;;-6.65;92.66;98065.84;4940641;29;19914;-85
2021/01/17 01:19:35;;;;;;;;;;;;;;;-6.53;92.67;98059.03;4956562;29;19925;-87
2021/01/17 01:22:01;;;;;;;;;;;;;;;-6.60;92.09;98058.13;4945470;29;19926;-85
2021/01/17 01:24:26;;;;;;;;;;;;;;;-6.70;92.09;98060.22;4957632;29;19926;-87
2021/01/17 01:26:51;;;;;;;;;;;;;;;-6.80;92.32;98048.25;4957718;29;19915;-88
2021/01/17 01:29:17;;;;;;;;;;;;;;;-6.72;92.35;98054.28;4957407;29;19922;-86
2021/01/17 01:31:45;;;;;;;;;;;;;;;-6.60;92.07;98052.81;4939997;29;19922;-87
2021/01/17 01:34:10;;;;;;;;;;;;;;;-6.51;91.56;98046.38;4940087;29;19918;-87
2021/01/17 01:36:37;;;;;;;;;;;;;;;-6.72;91.78;98045.47;4941154;29;19938;-88
2021/01/17 01:39:03;;;;;;;;;;;;;;;-6.82;92.17;98037.78;4940566;29;20384;-85
2021/01/17 01:41:30;;;;;;;;;;;;;;;-6.94;92.23;98033.09;4940328;29;19918;-86
2021/01/17 01:43:55;;;;;;;;;;;;;;;-6.90;92.36;98029.91;4939779;29;19926;-85
2021/01/17 01:46:22;;;;;;;;;;;;;;;-6.84;92.55;98023.84;4939380;29;19915;-86
2021/01/17 01:48:48;;;;;;;;;;;;;;;-6.98;92.72;98032.63;4939088;29;19907;-87
2021/01/17 01:51:18;;;;;;;;;;;;;;;-6.89;92.43;98026.22;4938700;29;19930;-85
2021/01/17 01:53:43;;;;;;;;;;;;;;;-6.82;91.99;98021.00;4955506;29;19922;-86
2021/01/17 01:56:09;;;;;;;;;;;;;;;-6.67;92.25;98019.97;4939284;29;19915;-86
2021/01/17 01:58:36;;;;;;;;;;;;;;;-6.78;91.50;98022.28;4954179;29;19921;-86
2021/01/17 02:01:02;;;;;;;;;;;;;;;-6.81;91.38;98023.50;4954095;29;19918;-86
2021/01/17 02:03:27;;;;;;;;;;;;;;;-6.78;92.05;98009.81;4939173;29;19950;-84
2021/01/17 02:05:52;;;;;;;;;;;;;;;-6.83;92.06;98006.09;4938212;29;19918;-86
2021/01/17 02:08:24;;;;;;;;;;;;;;;-6.76;92.33;98014.94;4935244;29;19925;-87
2021/01/17 02:10:49;;;;;;;;;;;;;;;-6.70;91.66;98012.38;4932315;29;19966;-87
2021/01/17 02:13:20;;;;;;;;;;;;;;;-6.89;91.49;98010.28;4932832;29;19918;-87
2021/01/17 02:15:47;;;;;;;;;;;;;;;-6.80;92.02;98009.19;4936362;29;19934;-86
2021/01/17 02:18:14;;;;;;;;;;;;;;;-6.83;92.14;98014.06;4952274;29;19902;-84
2021/01/17 02:20:39;;;;;;;;;;;;;;;-6.76;92.17;98009.63;4937106;29;19938;-86
2021/01/17 02:23:15;;;;;;;;;;;;;;;-6.75;91.68;98009.47;4937924;29;19917;-84
2021/01/17 02:25:40;;;;;;;;;;;;;;;-6.90;92.22;98003.34;4937095;29;19914;-85
2021/01/17 02:28:08;;;;;;;;;;;;;;;-6.94;91.87;97999.38;4940461;29;20013;-85
2021/01/17 02:30:35;;;;;;;;;;;;;;;-6.71;92.07;98001.94;4950246;29;19938;-85
2021/01/17 02:33:12;;;;;;;;;;;;;;;-6.77;91.88;98000.03;4931852;29;19926;-86
2021/01/17 02:35:39;;;;;;;;;;;;;;;-6.87;91.70;97997.66;4938705;29;19914;-86
2021/01/17 02:38:12;;;;;;;;;;;;;;;-6.91;91.36;97987.56;4937975;29;19915;-86
2021/01/17 02:40:44;;;;;;;;;;;;;;;-7.08;91.81;97985.09;4938188;29;19915;-88
2021/01/17 02:43:09;;;;;;;;;;;;;;;-6.88;92.65;97989.84;4955673;29;19923;-88
2021/01/17 02:45:34;;;;;;;;;;;;;;;-6.72;92.35;97982.50;4956094;29;19919;-87
2021/01/17 02:48:00;;;;;;;;;;;;;;;-6.75;91.22;97977.56;4938478;29;19918;-88
2021/01/17 02:50:25;;;;;;;;;;;;;;;-6.92;91.59;97975.28;4937390;29;19915;-88
2021/01/17 02:53:14;;;;;;;;;;;;;;;-6.80;91.82;97973.81;4938180;29;19950;-85
2021/01/17 02:55:40;;;;;;;;;;;;;;;-6.67;91.28;97976.63;4947521;29;19918;-86
2021/01/17 02:58:07;;;;;;;;;;;;;;;-6.65;91.64;97975.44;4939740;29;19911;-86
2021/01/17 03:00:33;;;;;;;;;;;;;;;-6.62;90.63;97967.09;4938803;29;20256;-86
2021/01/17 03:02:59;;;;;;;;;;;;;;;-6.69;90.23;97968.84;4939906;29;19907;-88
2021/01/17 03:05:27;;;;;;;;;;;;;;;-6.83;90.53;97961.72;4939908;29;19921;-86
2021/01/17 03:07:54;;;;;;;;;;;;;;;-6.89;90.73;97951.81;4951702;29;20425;-85
2021/01/17 03:10:20;;;;;;;;;;;;;;;-7.05;91.25;97950.19;4925889;29;19915;-86
2021/01/17 03:12:46;;;;;;;;;;;;;;;-7.19;92.11;97944.88;4926209;29;19921;-85
2021/01/17 03:15:14;;;;;;;;;;;;;;;-7.08;91.68;97947.88;4942036;29;19970;-86
2021/01/17 03:17:39;;;;;;;;;;;;;;;-7.07;91.48;97938.09;4924723;29;20369;-87
2021/01/17 03:20:05;;;;;;;;;;;;;;;-7.09;91.69;97945.44;4908856;29;19927;-87
2021/01/17 03:22:30;;;;;;;;;;;;;;;-7.00;91.48;97944.31;4925227;29;19918;-86
2021/01/17 03:24:56;;;;;;;;;;;;;;;-7.05;91.26;97942.22;4942039;29;20364;-85
2021/01/17 03:27:22;;;;;;;;;;;;;;;-7.10;91.23;97938.47;4926483;29;19915;-86
2021/01/17 03:29:47;;;;;;;;;;;;;;;-7.12;90.95;97933.34;4927032;29;19926;-88
2021/01/17 03:32:13;;;;;;;;;;;;;;;-7.10;90.98;97933.16;4926026;29;19915;-84
2021/01/17 03:34:38;;;;;;;;;;;;;;;-7.17;91.06;97940.19;4925654;29;19978;-87
2021/01/17 03:37:06;;;;;;;;;;;;;;;-7.18;91.06;97938.56;4926548;29;20319;-87
2021/01/17 03:39:32;;;;;;;;;;;;;;;-7.10;90.36;97933.16;4928283;29;20001;-87
2021/01/17 03:41:57;;;;;;;;;;;;;;;-7.25;90.64;97930.50;4926003;29;19927;-85
2021/01/17 03:44:22;;;;;;;;;;;;;;;-7.17;90.89;97932.22;4924731;29;20279;-85
2021/01/17 03:46:48;;;;;;;;;;;;;;;-6.97;89.87;97922.69;4924887;29;19966;-86
2021/01/17 03:49:13;;;;;;;;;;;;;;;-6.94;90.55;97916.16;4925768;29;19939;-85
2021/01/17 03:51:38;;;;;;;;;;;;;;;-6.88;90.54;97921.56;4926506;29;19915;-84
2021/01/17 03:54:04;;;;;;;;;;;;;;;-6.84;90.29;97912.22;4911074;29;19974;-85
2021/01/17 03:56:29;;;;;;;;;;;;;;;-6.94;89.59;97917.00;4926208;29;19919;-84
2021/01/17 03:58:54;;;;;;;;;;;;;;;-6.94;89.83;97911.69;4926561;29;19961;-84
2021/01/17 04:01:20;;;;;;;;;;;;;;;-7.07;90.42;97916.84;4927072;29;19921;-87
2021/01/17 04:03:45;;;;;;;;;;;;;;;-7.01;90.48;97910.78;4927274;29;20257;-85
2021/01/17 04:06:10;;;;;;;;;;;;;;;-6.97;89.98;97912.06;4927032;29;19919;-85
2021/01/17 04:08:35;;;;;;;;;;;;;;;-7.06;90.73;97910.53;4926597;29;19922;-85
2021/01/17 04:11:01;;;;;;;;;;;;;;;-7.08;90.40;97913.34;4925929;29;20387;-86
2021/01/17 04:13:26;;;;;;;;;;;;;;;-7.18;90.83;97906.69;4927517;29;19966;-86
2021/01/17 04:15:51;;;;;;;;;;;;;;;-7.10;91.19;97911.88;4928953;29;19930;-86
2021/01/17 04:18:17;;;;;;;;;;;;;;;-6.97;90.57;97912.06;4929533;29;19981;-87
2021/01/17 04:20:46;;;;;;;;;;;;;;;-6.93;89.75;97908.03;4929144;29;19958;-86
2021/01/17 04:23:13;;;;;;;;;;;;;;;-6.93;89.92;97908.03;4914649;29;19957;-87
2021/01/17 04:25:38;;;;;;;;;;;;;;;-6.88;89.85;97915.44;4945431;29;20009;-85
2021/01/17 04:28:08;;;;;;;;;;;;;;;-6.99;89.56;97915.91;4949199;29;19918;-84
2021/01/17 04:30:34;;;;;;;;;;;;;;;-7.21;89.80;97905.25;4929417;29;19911;-84
2021/01/17 04:32:59;;;;;;;;;;;;;;;-7.10;89.75;97907.41;4927963;29;20010;-86
2021/01/17 04:35:24;;;;;;;;;;;;;;;-7.21;90.10;97904.41;4927096;29;19954;-86
2021/01/17 04:37:50;;;;;;;;;;;;;;;-7.18;90.27;97909.34;4923733;29;20364;-85
2021/01/17 04:40:16;;;;;;;;;;;;;;;-6.91;89.39;97907.81;4923501;29;19915;-85
2021/01/17 04:42:42;;;;;;;;;;;;;;;-7.11;89.12;97916.38;4923569;29;19923;-84
2021/01/17 04:45:09;;;;;;;;;;;;;;;-7.12;88.89;97909.44;4923445;29;20062;-85
2021/01/17 04:47:35;;;;;;;;;;;;;;;-7.14;89.84;97910.63;4924122;29;19907;-86
2021/01/17 04:50:01;;;;;;;;;;;;;;;-7.10;89.78;97903.91;4941779;29;19922;-84
2021/01/17 04:52:28;;;;;;;;;;;;;;;-7.03;89.15;97912.81;4943186;29;19945;-86
2021/01/17 04:54:54;;;;;;;;;;;;;;;-7.08;88.71;97912.56;4943548;29;20291;-86
2021/01/17 04:57:23;;;;;;;;;;;;;;;-7.20;89.15;97912.19;4947717;29;19918;-87
2021/01/17 05:00:01;;;;;;;;;;;;;;;-7.26;89.96;97917.41;4953667;29;19914;-85
2021/01/17 05:02:32;;;;;;;;;;;;;;;-7.26;90.03;97917.41;4953475;29;19915;-86
2021/01/17 05:05:09;;;;;;;;;;;;;;;-7.25;89.65;97913.75;4943162;29;19930;-85
2021/01/17 05:07:36;;;;;;;;;;;;;;;-7.18;89.72;97915.50;4944166;29;19996;-83
2021/01/17 05:10:11;;;;;;;;;;;;;;;-7.21;89.86;97909.72;4928031;29;19978;-82
2021/01/17 05:12:38;;;;;;;;;;;;;;;-7.09;89.67;97922.34;4926607;29;19915;-84
2021/01/17 05:15:04;;;;;;;;;;;;;;;-7.00;89.21;97916.91;4926522;29;19921;-84
2021/01/17 05:17:36;;;;;;;;;;;;;;;-6.85;88.64;97918.53;4925738;29;19946;-84
2021/01/17 05:20:02;;;;;;;;;;;;;;;-6.93;88.24;97920.50;4939834;29;19922;-86
2021/01/17 05:22:28;;;;;;;;;;;;;;;-6.97;88.43;97922.69;4922636;29;19922;-85
2021/01/17 05:24:57;;;;;;;;;;;;;;;-7.00;89.04;97907.13;4940446;29;19921;-85
2021/01/17 05:27:22;;;;;;;;;;;;;;;-6.89;88.54;97911.94;4925637;29;19919;-85
2021/01/17 05:29:47;;;;;;;;;;;;;;;-7.03;88.98;97902.19;4922511;29;19931;-86
2021/01/17 05:32:14;;;;;;;;;;;;;;;-7.08;89.63;97913.34;4921916;29;19915;-86
2021/01/17 05:34:39;;;;;;;;;;;;;;;-6.97;89.43;97906.75;4922046;29;19914;-86
2021/01/17 05:37:04;;;;;;;;;;;;;;;-6.88;88.74;97910.13;4923674;29;19947;-84
2021/01/17 05:39:30;;;;;;;;;;;;;;;-6.89;88.71;97917.25;4923531;29;19914;-85
2021/01/17 05:42:05;;;;;;;;;;;;;;;-6.81;88.79;97922.47;4939798;29;20408;-86
2021/01/17 05:44:31;;;;;;;;;;;;;;;-6.75;88.56;97919.06;4922682;29;19926;-86
2021/01/17 05:47:06;;;;;;;;;;;;;;;-6.74;88.32;97920.72;4940752;29;19919;-85
2021/01/17 05:49:31;;;;;;;;;;;;;;;-6.97;88.56;97922.69;4923993;29;19915;-86
2021/01/17 05:52:26;;;;;;;;;;;;;;;-7.00;89.23;97930.22;4942653;29;19926;-86
2021/01/17 05:54:51;;;;;;;;;;;;;;;-6.76;89.27;97935.19;4920936;29;19921;-85
2021/01/17 05:57:23;;;;;;;;;;;;;;;-6.62;88.75;97937.84;4923285;29;19914;-86
2021/01/17 05:59:48;;;;;;;;;;;;;;;-6.69;88.55;97942.25;4923809;29;19930;-84
2021/01/17 06:02:21;;;;;;;;;;;;;;;-6.54;87.84;97939.53;4924177;29;19915;-85
2021/01/17 06:04:53;;;;;;;;;;;;;;;-6.66;87.68;97931.25;4923499;29;19996;-82
2021/01/17 06:07:20;;;;;;;;;;;;;;;-6.58;87.82;97936.44;4922448;29;19915;-84
2021/01/17 06:09:46;;;;;;;;;;;;;;;-6.67;88.34;97945.53;4939440;29;19915;-85
2021/01/17 06:12:12;;;;;;;;;;;;;;;-6.55;88.50;97944.03;4924141;29;20497;-81
2021/01/17 06:14:37;;;;;;;;;;;;;;;-6.56;87.90;97939.75;4927860;29;19921;-86
2021/01/17 06:17:03;;;;;;;;;;;;;;;-6.52;87.15;97937.53;4923863;29;19914;-85
2021/01/17 06:19:30;;;;;;;;;;;;;;;-6.67;87.67;97942.88;4924513;29;19914;-85
2021/01/17 06:21:58;;;;;;;;;;;;;;;-6.74;87.93;97944.66;4924621;29;19914;-85
2021/01/17 06:24:32;;;;;;;;;;;;;;;-6.78;88.19;97943.38;4925085;29;19914;-83
2021/01/17 06:27:00;;;;;;;;;;;;;;;-6.81;88.47;97954.38;4943422;29;19983;-87
2021/01/17 06:29:34;;;;;;;;;;;;;;;-6.91;88.57;97959.16;4954396;29;19915;-88
2021/01/17 06:32:31;;;;;;;;;;;;;;;-7.01;88.06;97955.13;4936594;29;19899;-88
2021/01/17 06:34:57;;;;;;;;;;;;;;;-7.12;88.32;97959.09;4924345;29;19939;-86
2021/01/17 06:37:24;;;;;;;;;;;;;;;-7.18;88.71;97968.63;4935176;29;19928;-86
2021/01/17 06:39:51;;;;;;;;;;;;;;;-7.31;88.77;97963.13;4934153;29;19921;-85
2021/01/17 06:42:17;;;;;;;;;;;;;;;-7.39;89.24;97960.53;4934462;29;19919;-88
2021/01/17 06:44:43;;;;;;;;;;;;;;;-7.11;88.92;97969.50;4931075;29;19966;-86
2021/01/17 06:47:18;;;;;;;;;;;;;;;-7.18;88.35;97965.97;4927863;29;19918;-86
2021/01/17 06:49:44;;;;;;;;;;;;;;;-7.33;88.69;97965.13;4925579;29;19950;-84
2021/01/17 06:52:10;;;;;;;;;;;;;;;-7.27;88.87;97966.25;4939197;29;19918;-86
2021/01/17 06:54:36;;;;;;;;;;;;;;;-7.33;89.63;97966.97;4942168;29;20017;-85
2021/01/17 06:57:02;;;;;;;;;;;;;;;-7.13;89.42;97958.25;4947002;29;19919;-86
2021/01/17 06:59:38;;;;;;;;;;;;;;;-7.07;88.54;97969.97;4944623;29;19922;-85
2021/01/17 07:02:12;;;;;;;;;;;;;;;-6.98;88.40;97962.75;4929426;29;19919;-84
2021/01/17 07:04:41;;;;;;;;;;;;;;;-7.11;87.99;97966.84;4923363;29;19926;-84
2021/01/17 07:07:06;;;;;;;;;;;;;;;-7.22;88.08;97972.66;4939850;29;19914;-87
2021/01/17 07:09:38;;;;;;;;;;;;;;;-7.18;88.24;97986.38;4925215;29;19919;-87
2021/01/17 07:12:06;;;;;;;;;;;;;;;-7.20;87.98;97975.09;4942782;29;19914;-87
2021/01/17 07:14:39;;;;;;;;;;;;;;;-7.11;88.03;97982.78;4929343;29;19987;-84
2021/01/17 07:17:08;;;;;;;;;;;;;;;-6.80;87.39;97987.94;4927573;29;19914;-85
2021/01/17 07:19:33;;;;;;;;;;;;;;;-6.79;86.76;97978.94;4932257;29;19915;-86
2021/01/17 07:22:05;;;;;;;;;;;;;;;-6.64;86.66;97979.72;4951065;29;19921;-85
2021/01/17 07:24:30;;;;;;;;;;;;;;;-6.70;86.63;97983.13;4936781;29;19915;-88
2021/01/17 07:27:19;;;;;;;;;;;;;;;-6.66;86.22;97981.75;4934548;29;19979;-89
2021/01/17 07:29:49;;;;;;;;;;;;;;;-6.60;86.06;97982.84;4930296;29;20001;-86
2021/01/17 07:32:28;;;;;;;;;;;;;;;-6.53;86.39;97995.22;4947105;29;19922;-87
2021/01/17 07:34:53;;;;;;;;;;;;;;;-6.56;86.28;97998.25;4934859;29;19978;-87
2021/01/17 07:37:20;;;;;;;;;;;;;;;-6.51;86.66;97993.19;4935836;29;19939;-87
2021/01/17 07:39:49;;;;;;;;;;;;;;;-6.33;86.41;97997.28;4955461;29;19946;-86
2021/01/17 07:42:18;;;;;;;;;;;;;;;-6.43;85.83;97994.09;4931027;29;19919;-87
2021/01/17 07:44:52;;;;;;;;;;;;;;;-6.52;85.94;97996.03;4918847;29;19915;-87
2021/01/17 07:47:26;;;;;;;;;;;;;;;-6.57;86.25;97999.25;4939156;29;20017;-86
2021/01/17 07:49:51;;;;;;;;;;;;;;;-6.45;86.45;98006.75;4920000;29;19947;-88
2021/01/17 07:52:19;;;;;;;;;;;;;;;-6.48;85.98;98007.94;4935742;29;19915;-88
2021/01/17 07:54:45;;;;;;;;;;;;;;;-6.43;85.83;98002.06;4939210;29;19909;-84
2021/01/17 07:57:11;;;;;;;;;;;;;;;-6.42;85.51;97998.41;4927790;29;19923;-84
2021/01/17 07:59:36;;;;;;;;;;;;;;;-6.32;85.57;97999.72;4945855;29;19903;-83
2021/01/17 08:02:02;;;;;;;;;;;;;;;-6.26;85.14;97998.16;4944629;29;19990;-89
2021/01/17 08:04:28;;;;;;;;;;;;;;;-6.07;84.90;97995.72;4926242;29;19911;-84
2021/01/17 08:06:57;;;;;;;;;;;;;;;-6.11;84.50;98004.28;4944317;29;19919;-85
2021/01/17 08:09:41;;;;;;;;;;;;;;;-6.08;83.94;97996.75;4928277;29;19907;-85
2021/01/17 08:12:06;;;;;;;;;;;;;;;-5.98;83.60;98002.56;4944421;29;19910;-87
2021/01/17 08:14:33;;;;;;;;;;;;;;;-5.96;83.37;97999.72;4944668;29;19942;-86
2021/01/17 08:17:06;;;;;;;;;;;;;;;-5.90;83.64;98001.63;4929110;29;19903;-86
2021/01/17 08:19:35;;;;;;;;;;;;;;;-5.98;83.43;98004.38;4928559;29;19914;-85
2021/01/17 08:22:16;;;;;;;;;;;;;;;-6.01;84.15;98015.41;4928792;29;19903;-83
2021/01/17 08:24:41;;;;;;;;;;;;;;;-5.84;83.96;98014.13;4944215;29;19970;-86
2021/01/17 08:27:06;;;;;;;;;;;;;;;-5.76;83.42;98013.97;4943846;29;19903;-86
2021/01/17 08:29:51;;;;;;;;;;;;;;;-5.70;83.43;98010.56;4944666;29;19910;-83
2021/01/17 08:40:06;;;;;;;;;;;;;;;-5.49;83.36;98010.56;5231498;23;19907;-88
2021/01/17 08:42:53;;;;;;;;;;;;;;;-5.53;83.36;98025.28;4895197;29;19914;-85
2021/01/17 08:48:16;;;;;;;;;;;;;;;-5.23;82.86;98019.78;5234136;23;19930;-89
2021/01/17 08:50:42;;;;;;;;;;;;;;;-5.30;82.50;98018.88;4925748;29;19945;-84
2021/01/17 08:53:07;;;;;;;;;;;;;;;-5.44;83.73;98017.94;4907401;29;19919;-84
2021/01/17 08:58:43;;;;;;;;;;;;;;;-5.10;82.57;98014.50;4848934;29;20380;-86
2021/01/17 09:01:09;;;;;;;;;;;;;;;-5.25;82.48;98017.28;4855538;29;19928;-85
2021/01/17 09:03:37;;;;;;;;;;;;;;;-5.29;82.64;98026.69;4914129;29;19919;-76
2021/01/17 09:06:02;;;;;;;;;;;;;;;-5.27;83.49;98034.50;4892628;29;19915;-76
2021/01/17 09:08:28;;;;;;;;;;;;;;;-5.34;82.92;98037.09;4910121;29;19920;-76
2021/01/17 09:10:54;;;;;;;;;;;;;;;-5.43;83.10;98041.75;4890621;29;19919;-76
2021/01/17 09:13:22;;;;;;;;;;;;;;;-5.12;83.95;98051.22;4907327;29;19962;-75
2021/01/17 09:15:56;;;;;;;;;;;;;;;-4.81;82.45;98056.97;4907390;29;19966;-80
2021/01/17 09:18:23;;;;;;;;;;;;;;;-4.49;80.98;98059.00;4908500;29;20050;-77
2021/01/17 09:20:49;;;;;;;;;;;;;;;-4.55;79.71;98062.47;4910275;29;19954;-86
2021/01/17 09:23:18;;;;;;;;;;;;;;;-4.61;79.22;98065.09;4905260;29;19919;-85
2021/01/17 09:25:45;;;;;;;;;;;;;;;-4.30;77.42;98073.47;4897442;29;19922;-82
2021/01/17 09:28:11;;;;;;;;;;;;;;;-4.23;76.56;98068.16;4889899;29;20370;-84
2021/01/17 09:30:36;;;;;;;;;;;;;;;-3.82;75.76;98066.22;4888501;29;19931;-85
2021/01/17 09:33:07;;;;;;;;;;;;;;;-4.00;74.81;98065.97;4889355;29;19919;-76
2021/01/17 09:35:34;;;;;;;;;;;;;;;-3.87;74.49;98066.84;4907369;29;19915;-76
2021/01/17 09:38:00;;;;;;;;;;;;;;;-3.70;73.84;98069.97;4888437;29;19925;-80
2021/01/17 09:40:25;;;;;;;;;;;;;;;-3.94;74.37;98081.19;4889868;29;20479;-75
2021/01/17 09:42:54;;;;;;;;;;;;;;;-4.06;74.97;98072.09;4889808;29;19915;-76
2021/01/17 09:45:19;;;;;;;;;;;;;;;-4.03;75.25;98071.72;4889857;29;19998;-76
2021/01/17 09:47:44;;;;;;;;;;;;;;;-3.75;74.49;98067.06;4904655;29;20336;-74
2021/01/17 09:50:11;;;;;;;;;;;;;;;-3.73;75.15;98062.38;4905906;29;19927;-76
2021/01/17 09:52:38;;;;;;;;;;;;;;;-3.38;74.00;98063.00;4920744;29;19929;-87
2021/01/17 09:55:06;;;;;;;;;;;;;;;-3.48;73.71;98059.94;4913751;29;19915;-85
2021/01/17 09:57:35;;;;;;;;;;;;;;;-3.57;74.35;98048.59;4924073;29;19918;-81
2021/01/17 10:00:00;;;;;;;;;;;;;;;-3.53;73.81;98049.84;4894393;29;19918;-77
2021/01/17 10:02:27;;;;;;;;;;;;;;;-3.32;73.76;98048.84;4908432;29;20395;-82
2021/01/17 10:05:10;;;;;;;;;;;;;;;-3.49;73.85;98044.91;4914588;29;19915;-87
2021/01/17 10:07:35;;;;;;;;;;;;;;;-3.45;75.08;98043.50;4912350;29;19963;-85
2021/01/17 10:10:07;;;;;;;;;;;;;;;-3.40;74.45;98041.84;4909692;29;19935;-84
2021/01/17 10:12:32;;;;;;;;;;;;;;;-2.87;73.76;98028.44;4894214;29;19942;-85
2021/01/17 10:14:57;;;;;;;;;;;;;;;-2.67;72.76;98031.91;4898510;29;20373;-85
2021/01/17 10:17:23;;;;;;;;;;;;;;;-2.52;71.61;98024.44;4889240;29;19970;-86
2021/01/17 10:19:48;;;;;;;;;;;;;;;-2.89;72.77;98027.84;4907686;29;20435;-84
2021/01/17 10:22:14;;;;;;;;;;;;;;;-2.88;73.41;98037.50;4893209;29;19915;-86
2021/01/17 10:24:40;;;;;;;;;;;;;;;-2.94;73.13;98030.28;4887093;29;19919;-85
2021/01/17 10:27:06;;;;;;;;;;;;;;;-2.77;73.13;98026.16;4889808;29;19939;-85
2021/01/17 10:29:33;;;;;;;;;;;;;;;-2.69;72.88;98017.09;4895651;29;19919;-86
2021/01/17 10:32:09;;;;;;;;;;;;;;;-2.60;71.07;98021.19;4898360;29;20394;-83
2021/01/17 10:34:35;;;;;;;;;;;;;;;-2.49;71.01;98021.34;4887760;29;19915;-86
2021/01/17 10:37:02;;;;;;;;;;;;;;;-2.38;70.97;98030.59;4893317;29;19951;-85
2021/01/17 10:39:28;;;;;;;;;;;;;;;-2.56;72.02;98033.94;4890147;29;19911;-84
2021/01/17 10:42:00;;;;;;;;;;;;;;;-2.63;72.83;98027.75;4907204;29;19970;-82
2021/01/17 10:44:27;;;;;;;;;;;;;;;-2.14;72.04;98027.19;4909596;29;19919;-86
2021/01/17 10:47:00;;;;;;;;;;;;;;;-2.12;70.86;98019.75;4896000;29;19926;-86
2021/01/17 10:49:29;;;;;;;;;;;;;;;-2.03;70.06;98015.78;4904981;29;19944;-87
2021/01/17 10:51:56;;;;;;;;;;;;;;;-2.21;70.27;98013.81;4913050;29;19915;-84
2021/01/17 10:54:23;;;;;;;;;;;;;;;-2.25;70.94;98009.91;4910253;29;19919;-88
2021/01/17 10:56:49;;;;;;;;;;;;;;;-2.00;69.75;98009.19;4897701;29;19922;-87
2021/01/17 10:59:19;;;;;;;;;;;;;;;-1.71;69.17;98003.25;4892471;29;19943;-85
2021/01/17 11:01:46;;;;;;;;;;;;;;;-1.81;68.94;98000.22;4913009;29;20010;-85
2021/01/17 11:04:13;;;;;;;;;;;;;;;-1.72;68.81;98005.09;4885331;29;19919;-86
2021/01/17 11:06:38;;;;;;;;;;;;;;;-1.81;69.03;98001.03;4905186;29;19919;-87
2021/01/17 11:09:10;;;;;;;;;;;;;;;-1.70;69.26;97991.50;4896116;29;19934;-84
2021/01/17 11:11:42;;;;;;;;;;;;;;;-1.63;68.95;97997.63;4895243;29;19943;-89
2021/01/17 11:14:07;;;;;;;;;;;;;;;-1.51;67.88;97990.53;4924991;29;19922;-85
2021/01/17 11:16:38;;;;;;;;;;;;;;;-1.65;68.92;97988.97;4915242;29;19918;-87
2021/01/17 11:19:09;;;;;;;;;;;;;;;-1.73;69.04;97975.84;4903319;29;19926;-87
2021/01/17 11:21:34;;;;;;;;;;;;;;;-1.69;69.00;97982.41;4910675;29;20030;-86
2021/01/17 11:24:00;;;;;;;;;;;;;;;-1.70;68.48;97980.78;4909673;29;20380;-86
2021/01/17 11:26:26;;;;;;;;;;;;;;;-1.80;68.99;97991.97;4909735;29;20399;-84
2021/01/17 11:28:52;;;;;;;;;;;;;;;-1.87;69.15;97982.31;4910537;29;19919;-82
2021/01/17 11:31:18;;;;;;;;;;;;;;;-1.90;69.05;97983.56;4911163;29;20485;-85
2021/01/17 11:33:44;;;;;;;;;;;;;;;-1.87;69.46;97980.47;4906720;29;20011;-82
2021/01/17 11:36:10;;;;;;;;;;;;;;;-1.73;69.34;97976.66;4910092;29;20010;-86
2021/01/17 11:38:41;;;;;;;;;;;;;;;-1.84;69.24;97976.53;4895422;29;19931;-85
2021/01/17 11:41:07;;;;;;;;;;;;;;;-1.88;68.60;97972.66;4895651;29;19915;-88
2021/01/17 11:43:32;;;;;;;;;;;;;;;-1.88;69.00;97973.44;4889569;29;20038;-88
2021/01/17 11:46:03;;;;;;;;;;;;;;;-1.93;68.52;97964.41;4910283;29;19919;-84
2021/01/17 11:48:31;;;;;;;;;;;;;;;-1.83;69.36;97964.78;4910610;29;19926;-84
2021/01/17 11:50:56;;;;;;;;;;;;;;;-1.83;69.19;97959.41;4900461;29;19922;-87
2021/01/17 11:53:25;;;;;;;;;;;;;;;-1.98;69.67;97953.53;4887256;29;19919;-84
2021/01/17 11:55:50;;;;;;;;;;;;;;;-1.97;70.12;97953.31;4901531;29;19919;-85
2021/01/17 11:58:16;;;;;;;;;;;;;;;-1.87;70.05;97950.97;4895438;29;19926;-89
2021/01/17 12:00:45;;;;;;;;;;;;;;;-1.84;70.07;97944.34;4890141;29;19918;-87
2021/01/17 12:03:21;;;;;;;;;;;;;;;-1.66;69.61;97944.47;4906279;29;20274;-74
2021/01/17 12:05:55;;;;;;;;;;;;;;;-1.59;69.98;97947.06;4896685;29;20274;-75
2021/01/17 12:08:20;;;;;;;;;;;;;;;-1.46;69.57;97946.97;4897423;29;19919;-78
2021/01/17 12:10:52;;;;;;;;;;;;;;;-1.65;70.05;97948.75;4907009;29;20006;-75
2021/01/17 12:13:18;;;;;;;;;;;;;;;-1.25;69.85;97944.69;4879225;29;19967;-78
2021/01/17 12:15:43;;;;;;;;;;;;;;;-1.15;68.62;97942.34;4878458;29;19919;-77
2021/01/17 12:18:08;;;;;;;;;;;;;;;-1.30;68.54;97938.34;4897407;29;19907;-76
2021/01/17 12:20:33;;;;;;;;;;;;;;;-1.30;68.37;97931.13;4895904;29;20369;-75
2021/01/17 12:22:59;;;;;;;;;;;;;;;-0.96;67.40;97924.41;4913898;29;19962;-75
2021/01/17 12:25:24;;;;;;;;;;;;;;;-1.17;67.64;97927.50;4913746;29;19922;-75
2021/01/17 12:27:49;;;;;;;;;;;;;;;-1.22;68.06;97927.34;4897057;29;19966;-75
2021/01/17 12:30:17;;;;;;;;;;;;;;;-1.35;68.77;97922.94;4914198;29;20376;-75
2021/01/17 12:32:42;;;;;;;;;;;;;;;-1.14;68.32;97925.22;4914016;29;19970;-75
2021/01/17 12:35:07;;;;;;;;;;;;;;;-1.25;68.59;97919.72;4913020;29;19915;-74
2021/01/17 12:37:33;;;;;;;;;;;;;;;-0.99;69.80;97915.97;4884098;29;19929;-76
2021/01/17 12:39:58;;;;;;;;;;;;;;;-0.97;68.63;97919.25;4903838;29;19923;-74
2021/01/17 12:42:23;;;;;;;;;;;;;;;-1.26;69.51;97918.94;4898532;29;19915;-75
2021/01/17 12:44:48;;;;;;;;;;;;;;;-1.39;70.44;97927.09;4898474;29;19916;-76
2021/01/17 12:47:14;;;;;;;;;;;;;;;-1.38;70.20;97923.34;4895007;29;19943;-77
2021/01/17 12:49:39;;;;;;;;;;;;;;;-1.14;70.25;97927.06;4900510;29;19923;-76
2021/01/17 12:52:05;;;;;;;;;;;;;;;-1.20;70.78;97923.41;4916426;29;19977;-76
2021/01/17 12:54:30;;;;;;;;;;;;;;;-1.40;72.17;97922.75;4916367;29;19926;-76
2021/01/17 12:56:56;;;;;;;;;;;;;;;-1.49;72.47;97918.72;4916981;29;20377;-76
2021/01/17 12:59:21;;;;;;;;;;;;;;;-1.47;72.79;97911.28;4916937;29;19941;-75
2021/01/17 13:01:47;;;;;;;;;;;;;;;-1.62;73.89;97918.84;4898656;29;20436;-75
2021/01/17 13:04:12;;;;;;;;;;;;;;;-1.57;73.79;97921.69;4915163;29;19919;-76